createdAt,value
2024-01-16T00:02:12.433Z,98490.80
2024-01-16T00:04:42.118Z,98492.67
2024-01-16T00:07:10.143Z,98488.38
2024-01-16T00:09:38.328Z,98490.95
2024-01-16T00:12:06.862Z,98496.49
2024-01-16T00:14:38.549Z,98499.29
2024-01-16T00:17:07.144Z,98502.80
2024-01-16T00:19:35.323Z,98509.95
2024-01-16T00:22:06.316Z,98512.92
2024-01-16T00:24:34.746Z,98516.79
2024-01-16T00:27:02.526Z,98531.51
2024-01-16T00:29:31.860Z,98553.14
2024-01-16T00:31:59.856Z,98561.13
2024-01-16T00:34:27.868Z,98572.23
2024-01-16T00:36:56.285Z,98580.36
2024-01-16T00:39:24.212Z,98585.41
2024-01-16T00:41:52.212Z,98587.37
2024-01-16T00:44:20.530Z,98593.36
2024-01-16T00:46:48.588Z,98596.09
2024-01-16T00:49:18.979Z,98609.77
2024-01-16T00:51:48.503Z,98613.55
2024-01-16T00:54:16.467Z,98618.98
2024-01-16T00:56:44.402Z,98628.50
2024-01-16T00:59:13.442Z,98631.33
2024-01-16T01:01:41.444Z,98633.26
2024-01-16T01:04:09.296Z,98634.35
2024-01-16T01:06:37.765Z,98637.98
2024-01-16T01:09:05.776Z,98638.86
2024-01-16T01:11:33.614Z,98633.41
2024-01-16T01:14:01.619Z,98636.45
2024-01-16T01:16:29.641Z,98642.74
2024-01-16T01:18:57.429Z,98650.13
2024-01-16T01:21:25.847Z,98654.81
2024-01-16T01:23:53.996Z,98659.96
2024-01-16T01:26:21.948Z,98652.41
2024-01-16T01:28:52.011Z,98653.79
2024-01-16T01:31:21.437Z,98661.71
2024-01-16T01:33:49.283Z,98659.00
2024-01-16T01:36:17.542Z,98669.67
2024-01-16T01:38:45.784Z,98681.04
2024-01-16T01:41:13.758Z,98683.29
2024-01-16T01:43:41.819Z,98689.53
2024-01-16T01:46:19.641Z,98692.65
2024-01-16T01:48:49.515Z,98692.12
2024-01-16T01:51:21.642Z,98691.41
2024-01-16T01:53:52.821Z,98697.80
2024-01-16T01:56:22.299Z,98697.66
2024-01-16T01:58:54.783Z,98700.04
2024-01-16T02:01:23.824Z,98702.27
2024-01-16T02:03:53.521Z,98716.59
2024-01-16T02:06:21.721Z,98722.65
2024-01-16T02:08:50.146Z,98725.68
2024-01-16T02:11:18.242Z,98728.23
2024-01-16T02:13:46.857Z,98722.11
2024-01-16T02:16:25.286Z,98736.50
2024-01-16T02:18:54.036Z,98735.80
2024-01-16T02:21:23.652Z,98730.13
2024-01-16T02:23:51.581Z,98729.70
2024-01-16T02:26:20.823Z,98723.68
2024-01-16T02:28:49.532Z,98728.99
2024-01-16T02:31:18.032Z,98735.80
2024-01-16T02:33:46.364Z,98742.29
2024-01-16T02:36:14.954Z,98750.28
2024-01-16T02:38:46.067Z,98755.09
2024-01-16T02:41:17.104Z,98762.95
2024-01-16T02:43:45.916Z,98767.61
2024-01-16T02:46:14.651Z,98771.41
2024-01-16T02:48:44.067Z,98767.65
2024-01-16T02:51:12.123Z,98775.66
2024-01-16T02:53:40.145Z,98785.41
2024-01-16T02:56:10.068Z,98789.13
2024-01-16T02:58:38.644Z,98788.77
2024-01-16T03:01:06.548Z,98797.58
2024-01-16T03:03:34.765Z,98799.48
2024-01-16T03:06:03.016Z,98797.98
2024-01-16T03:08:31.405Z,98795.46
2024-01-16T03:10:59.317Z,98805.77
2024-01-16T03:13:27.435Z,98802.21
2024-01-16T03:15:55.413Z,98799.98
2024-01-16T03:18:23.651Z,98797.45
2024-01-16T03:20:51.956Z,98803.34
2024-01-16T03:23:20.200Z,98809.07
2024-01-16T03:25:48.469Z,98809.21
2024-01-16T03:28:16.501Z,98808.09
2024-01-16T03:30:44.580Z,98813.45
2024-01-16T03:33:12.784Z,98811.61
2024-01-16T03:35:40.726Z,98807.19
2024-01-16T03:38:08.828Z,98802.25
2024-01-16T03:40:37.132Z,98799.84
2024-01-16T03:43:06.698Z,98801.67
2024-01-16T03:45:34.505Z,98793.27
2024-01-16T03:48:04.891Z,98794.97
2024-01-16T03:50:33.019Z,98802.86
2024-01-16T03:53:01.005Z,98802.14
2024-01-16T03:55:28.897Z,98806.75
2024-01-16T03:57:56.803Z,98816.30
2024-01-16T04:00:25.100Z,98822.41
2024-01-16T04:02:53.053Z,98824.09
2024-01-16T04:05:21.281Z,98819.91
2024-01-16T04:07:49.438Z,98818.86
2024-01-16T04:10:17.378Z,98820.01
2024-01-16T04:12:45.381Z,98818.58
2024-01-16T04:15:13.430Z,98823.01
2024-01-16T04:17:41.520Z,98822.13
2024-01-16T04:20:10.722Z,98822.45
2024-01-16T04:22:38.646Z,98828.80
2024-01-16T04:25:07.458Z,98835.13
2024-01-16T04:27:35.416Z,98839.91
2024-01-16T04:30:04.280Z,98847.86
2024-01-16T04:32:32.834Z,98850.20
2024-01-16T04:35:00.935Z,98858.45
2024-01-16T04:37:28.905Z,98851.80
2024-01-16T04:39:59.303Z,98844.58
2024-01-16T04:42:27.783Z,98841.15
2024-01-16T04:44:55.645Z,98841.14
2024-01-16T04:47:23.844Z,98844.05
2024-01-16T04:49:51.911Z,98843.17
2024-01-16T04:52:20.219Z,98851.39
2024-01-16T04:54:48.524Z,98858.70
2024-01-16T04:57:16.449Z,98853.66
2024-01-16T04:59:44.294Z,98859.14
2024-01-16T05:02:12.899Z,98862.52
2024-01-16T05:04:40.899Z,98860.04
2024-01-16T05:07:08.651Z,98856.91
2024-01-16T05:09:36.777Z,98864.58
2024-01-16T05:12:05.759Z,98860.91
2024-01-16T05:14:33.529Z,98862.89
2024-01-16T05:17:01.692Z,98865.39
2024-01-16T05:19:29.989Z,98862.55
2024-01-16T05:21:57.779Z,98864.91
2024-01-16T05:24:26.105Z,98859.55
2024-01-16T05:26:54.228Z,98859.33
2024-01-16T05:29:22.090Z,98859.64
2024-01-16T05:31:51.651Z,98860.27
2024-01-16T05:34:19.797Z,98861.98
2024-01-16T05:36:47.594Z,98868.98
2024-01-16T05:39:15.640Z,98874.10
2024-01-16T05:41:43.650Z,98876.10
2024-01-16T05:44:11.863Z,98878.13
2024-01-16T05:46:39.960Z,98878.80
2024-01-16T05:49:08.390Z,98881.08
2024-01-16T05:51:36.541Z,98888.64
2024-01-16T05:54:04.782Z,98886.77
2024-01-16T05:56:33.286Z,98883.16
2024-01-16T05:59:01.068Z,98882.27
2024-01-16T06:01:29.317Z,98883.41
2024-01-16T06:03:57.174Z,98876.85
2024-01-16T06:06:25.017Z,98879.56
2024-01-16T06:08:53.440Z,98882.40
2024-01-16T06:11:31.750Z,98890.45
2024-01-16T06:14:00.934Z,98899.20
2024-01-16T06:16:28.996Z,98922.17
2024-01-16T06:18:56.805Z,98933.13
2024-01-16T06:21:25.732Z,98941.65
2024-01-16T06:23:54.003Z,98944.07
2024-01-16T06:26:22.862Z,98949.55
2024-01-16T06:28:50.990Z,98951.86
2024-01-16T06:31:21.644Z,98946.60
2024-01-16T06:33:50.252Z,98956.53
2024-01-16T06:36:18.769Z,98952.20
2024-01-16T06:38:47.075Z,98957.66
2024-01-16T06:41:14.965Z,98962.88
2024-01-16T06:43:43.003Z,98971.05
2024-01-16T06:46:11.048Z,98978.18
2024-01-16T06:48:39.517Z,98975.99
2024-01-16T06:51:09.465Z,98977.73
2024-01-16T06:53:38.200Z,98983.52
2024-01-16T06:56:09.046Z,98987.05
2024-01-16T06:58:37.374Z,98999.61
2024-01-16T07:01:05.421Z,99005.59
2024-01-16T07:03:33.443Z,99009.73
2024-01-16T07:06:04.436Z,99023.73
2024-01-16T07:08:33.009Z,99033.42
2024-01-16T07:11:01.166Z,99043.40
2024-01-16T07:13:29.565Z,99038.77
2024-01-16T07:15:57.819Z,99045.62
2024-01-16T07:18:25.953Z,99050.08
2024-01-16T07:20:54.319Z,99053.66
2024-01-16T07:23:22.398Z,99060.48
2024-01-16T07:25:50.404Z,99062.44
2024-01-16T07:28:18.869Z,99067.81
2024-01-16T07:30:46.867Z,99067.52
2024-01-16T07:33:14.841Z,99072.70
2024-01-16T07:35:45.351Z,99078.31
2024-01-16T07:38:13.459Z,99083.23
2024-01-16T07:40:41.364Z,99091.27
2024-01-16T07:43:09.526Z,99097.23
2024-01-16T07:45:37.540Z,99099.02
2024-01-16T07:48:05.773Z,99099.58
2024-01-16T07:50:36.359Z,99102.48
2024-01-16T07:53:04.391Z,99100.09
2024-01-16T07:55:32.516Z,99108.33
2024-01-16T07:58:00.712Z,99117.88
2024-01-16T08:00:33.323Z,99117.41
2024-01-16T08:03:01.740Z,99117.31
2024-01-16T08:05:31.647Z,99120.84
2024-01-16T08:07:59.762Z,99121.31
2024-01-16T08:10:27.962Z,99130.86
2024-01-16T08:12:56.006Z,99139.58
2024-01-16T08:15:24.055Z,99145.35
2024-01-16T08:17:52.492Z,99150.65
2024-01-16T08:20:20.683Z,99154.16
2024-01-16T08:22:48.649Z,99158.24
2024-01-16T08:25:17.262Z,99160.45
2024-01-16T08:27:46.490Z,99169.30
2024-01-16T08:30:14.691Z,99173.08
2024-01-16T08:32:43.103Z,99178.17
2024-01-16T08:35:11.779Z,99183.79
2024-01-16T08:37:40.449Z,99187.05
2024-01-16T08:40:09.491Z,99184.44
2024-01-16T08:42:37.491Z,99184.48
2024-01-16T08:45:06.757Z,99183.37
2024-01-16T08:47:35.024Z,99181.96
2024-01-16T08:50:03.689Z,99186.31
2024-01-16T08:52:32.199Z,99191.03
2024-01-16T08:55:03.478Z,99194.12
2024-01-16T08:57:31.422Z,99194.83
2024-01-16T08:59:59.411Z,99195.88
2024-01-16T09:02:30.516Z,99202.73
2024-01-16T09:04:59.843Z,99206.69
2024-01-16T09:07:29.114Z,99204.48
2024-01-16T09:09:59.863Z,99205.70
2024-01-16T09:12:27.756Z,99204.14
2024-01-16T09:14:55.769Z,99211.38
2024-01-16T09:17:27.053Z,99204.07
2024-01-16T09:19:55.126Z,99209.44
2024-01-16T09:22:23.151Z,99204.33
2024-01-16T09:24:51.392Z,99212.94
2024-01-16T09:27:19.582Z,99217.94
2024-01-16T09:29:47.590Z,99221.60
2024-01-16T09:32:15.645Z,99221.45
2024-01-16T09:34:43.486Z,99219.44
2024-01-16T09:37:14.017Z,99221.97
2024-01-16T09:39:42.522Z,99222.39
2024-01-16T09:42:10.674Z,99221.79
2024-01-16T09:44:39.009Z,99229.44
2024-01-16T09:47:09.340Z,99226.83
2024-01-16T09:49:37.602Z,99228.91
2024-01-16T09:52:11.467Z,99234.23
2024-01-16T09:54:54.935Z,99233.92
2024-01-16T09:57:28.301Z,99231.98
2024-01-16T10:00:09.469Z,99228.03
2024-01-16T10:03:08.255Z,99230.48
2024-01-16T10:09:01.076Z,99244.23
2024-01-16T10:11:30.693Z,99248.80
2024-01-16T10:14:02.523Z,99251.58
2024-01-16T10:16:57.195Z,99254.04
2024-01-16T10:19:35.149Z,99257.55
2024-01-16T10:22:27.835Z,99258.46
2024-01-16T10:25:10.213Z,99254.23
2024-01-16T10:27:43.111Z,99253.50
2024-01-16T10:30:11.915Z,99260.09
2024-01-16T10:36:41.884Z,99275.75
2024-01-16T10:39:21.313Z,99277.82
2024-01-16T10:42:11.175Z,99282.68
2024-01-16T10:48:09.378Z,99281.95
2024-01-16T10:51:40.867Z,99283.73
2024-01-16T10:54:24.344Z,99290.13
2024-01-16T10:56:56.040Z,99298.20
2024-01-16T10:59:51.956Z,99296.67
2024-01-16T11:02:28.237Z,99299.80
2024-01-16T11:04:58.699Z,99299.42
2024-01-16T11:07:34.130Z,99296.69
2024-01-16T11:10:05.195Z,99289.73
2024-01-16T11:13:15.917Z,99280.64
2024-01-16T11:16:07.593Z,99284.23
2024-01-16T11:19:18.103Z,99289.50
2024-01-16T11:22:30.533Z,99292.98
2024-01-16T11:37:31.537Z,99298.85
2024-01-16T11:40:18.835Z,99298.56
2024-01-16T11:43:45.330Z,99306.53
2024-01-16T11:50:59.686Z,99314.59
2024-01-16T11:53:46.116Z,99308.02
2024-01-16T12:15:31.117Z,99310.91
2024-01-16T12:21:50.741Z,99309.56
2024-01-16T12:25:20.986Z,99316.44
2024-01-16T12:43:26.675Z,99332.84
2024-01-16T13:08:11.779Z,99369.59
2024-01-16T13:18:35.735Z,99364.86
2024-01-16T13:21:23.184Z,99368.57
2024-01-16T13:29:13.401Z,99369.14
2024-01-16T13:31:57.100Z,99368.65
2024-01-16T13:36:39.278Z,99353.23
2024-01-16T13:38:55.974Z,99352.97
2024-01-16T13:41:30.351Z,99368.52
2024-01-16T13:44:11.271Z,99363.85
2024-01-16T13:47:08.990Z,99368.50
2024-01-16T13:50:08.818Z,99372.88
2024-01-16T13:58:57.656Z,99378.30
2024-01-16T14:01:39.711Z,99364.48
2024-01-16T14:11:30.637Z,99385.50
2024-01-16T14:14:44.123Z,99390.91
2024-01-16T14:17:20.139Z,99394.10
2024-01-16T14:20:02.326Z,99387.19
2024-01-16T14:22:30.239Z,99390.70
2024-01-16T14:24:58.311Z,99392.17
2024-01-16T14:27:26.862Z,99389.89
2024-01-16T14:29:55.550Z,99390.66
2024-01-16T14:32:23.786Z,99391.20
2024-01-16T14:34:52.015Z,99392.98
2024-01-16T14:37:23.138Z,99393.20
2024-01-16T14:39:51.694Z,99391.34
2024-01-16T14:42:36.192Z,99396.08
2024-01-16T14:45:05.160Z,99400.45
2024-01-16T14:50:35.872Z,99395.08
2024-01-16T14:53:06.047Z,99395.39
2024-01-16T14:55:34.591Z,99398.65
2024-01-16T14:58:03.169Z,99398.02
2024-01-16T15:00:32.205Z,99398.95
2024-01-16T15:03:00.617Z,99401.70
2024-01-16T15:05:29.695Z,99401.87
2024-01-16T15:07:57.610Z,99398.10
2024-01-16T15:10:25.843Z,99398.61
2024-01-16T15:12:54.059Z,99408.45
2024-01-16T15:15:22.400Z,99415.14
2024-01-16T15:17:53.300Z,99414.79
2024-01-16T15:20:21.451Z,99422.70
2024-01-16T15:22:54.303Z,99419.23
2024-01-16T15:25:24.619Z,99421.11
2024-01-16T15:27:56.141Z,99422.97
2024-01-16T15:30:29.102Z,99423.99
2024-01-16T15:32:57.291Z,99421.93
2024-01-16T15:35:25.708Z,99424.77
2024-01-16T15:37:53.482Z,99428.11
2024-01-16T15:40:21.924Z,99430.46
2024-01-16T15:42:49.857Z,99430.20
2024-01-16T15:45:18.020Z,99433.38
2024-01-16T15:47:46.204Z,99432.82
2024-01-16T15:50:15.931Z,99432.39
2024-01-16T15:52:43.756Z,99437.66
2024-01-16T15:55:12.230Z,99438.16
2024-01-16T15:57:40.416Z,99439.13
2024-01-16T16:00:10.543Z,99437.17
2024-01-16T16:02:40.052Z,99430.76
2024-01-16T16:05:09.084Z,99431.51
2024-01-16T16:07:37.058Z,99440.02
2024-01-16T16:10:06.017Z,99435.98
2024-01-16T16:12:34.386Z,99435.91
2024-01-16T16:15:02.323Z,99432.72
2024-01-16T16:17:30.510Z,99431.92
2024-01-16T16:19:58.569Z,99434.40
2024-01-16T16:22:26.546Z,99440.51
2024-01-16T16:24:54.890Z,99444.02
2024-01-16T16:27:25.639Z,99448.89
2024-01-16T16:29:57.775Z,99445.52
2024-01-16T16:32:26.275Z,99444.73
2024-01-16T16:34:54.628Z,99437.61
2024-01-16T16:37:24.429Z,99447.39
2024-01-16T16:39:52.831Z,99448.98
2024-01-16T16:42:23.820Z,99452.98
2024-01-16T16:44:51.793Z,99454.20
2024-01-16T16:47:20.108Z,99455.75
2024-01-16T16:49:48.159Z,99454.40
2024-01-16T16:52:15.941Z,99455.95
2024-01-16T16:54:47.463Z,99457.31
2024-01-16T16:57:15.515Z,99459.02
2024-01-16T16:59:43.355Z,99460.02
2024-01-16T17:02:11.982Z,99459.85
2024-01-16T17:04:40.983Z,99457.64
2024-01-16T17:07:12.455Z,99461.25
2024-01-16T17:09:44.089Z,99458.52
2024-01-16T17:12:12.244Z,99460.42
2024-01-16T17:14:40.048Z,99465.10
2024-01-16T17:17:12.576Z,99468.44
2024-01-16T17:19:41.776Z,99471.92
2024-01-16T17:22:12.905Z,99471.46
2024-01-16T17:24:40.823Z,99475.29
2024-01-16T17:27:09.001Z,99477.58
2024-01-16T17:29:39.875Z,99484.83
2024-01-16T17:32:08.984Z,99485.56
2024-01-16T17:34:37.064Z,99479.27
2024-01-16T17:37:05.147Z,99477.41
2024-01-16T17:39:33.019Z,99475.89
2024-01-16T17:42:01.145Z,99472.98
2024-01-16T17:44:29.427Z,99469.23
2024-01-16T17:46:57.405Z,99475.08
2024-01-16T17:49:25.361Z,99484.00
2024-01-16T17:51:55.494Z,99486.77
2024-01-16T17:54:23.277Z,99484.40
2024-01-16T17:56:51.394Z,99490.08
2024-01-16T17:59:20.194Z,99496.11
2024-01-16T18:01:48.200Z,99496.84
2024-01-16T18:04:16.885Z,99497.89
2024-01-16T18:06:45.701Z,99501.30
2024-01-16T18:09:13.693Z,99498.71
2024-01-16T18:11:56.615Z,99500.73
2024-01-16T18:14:25.706Z,99501.90
2024-01-16T18:16:57.069Z,99500.70
2024-01-16T18:19:28.524Z,99505.45
2024-01-16T18:21:56.916Z,99498.98
2024-01-16T18:24:25.014Z,99499.98
2024-01-16T18:26:53.836Z,99496.36
2024-01-16T18:29:21.954Z,99499.25
2024-01-16T18:31:50.481Z,99495.95
2024-01-16T18:34:24.144Z,99498.46
2024-01-16T18:36:54.421Z,99496.03
2024-01-16T18:39:23.292Z,99502.98
2024-01-16T18:41:51.331Z,99503.13
2024-01-16T18:44:20.373Z,99501.20
2024-01-16T18:46:51.461Z,99506.98
2024-01-16T18:49:19.832Z,99506.13
2024-01-16T18:51:50.236Z,99501.15
2024-01-16T18:54:18.234Z,99498.39
2024-01-16T18:56:46.558Z,99498.73
2024-01-16T18:59:14.768Z,99499.39
2024-01-16T19:01:44.886Z,99499.89
2024-01-16T19:04:14.390Z,99492.33
2024-01-16T19:06:46.321Z,99496.75
2024-01-16T19:09:16.173Z,99506.98
2024-01-16T19:11:51.653Z,99501.98
2024-01-16T19:14:20.521Z,99503.32
2024-01-16T19:16:50.582Z,99504.14
2024-01-16T19:19:18.470Z,99504.63
2024-01-16T19:21:47.849Z,99506.83
2024-01-16T19:24:16.620Z,99506.11
2024-01-16T19:26:44.952Z,99506.75
2024-01-16T19:29:13.406Z,99504.17
2024-01-16T19:31:45.883Z,99506.89
2024-01-16T19:34:14.063Z,99502.41
2024-01-16T19:36:42.269Z,99502.36
2024-01-16T19:39:16.152Z,99498.25
2024-01-16T19:41:47.099Z,99498.06
2024-01-16T19:44:14.911Z,99500.09
2024-01-16T19:46:44.540Z,99498.90
2024-01-16T19:49:13.134Z,99490.98
2024-01-16T19:51:41.167Z,99494.06
2024-01-16T19:54:09.621Z,99498.85
2024-01-16T19:56:40.542Z,99496.79
2024-01-16T19:59:11.798Z,99498.83
2024-01-16T20:01:40.107Z,99506.52
2024-01-16T20:04:07.904Z,99502.23
2024-01-16T20:06:36.277Z,99504.08
2024-01-16T20:09:07.406Z,99506.45
2024-01-16T20:11:35.448Z,99498.34
2024-01-16T20:14:03.637Z,99495.56
2024-01-16T20:16:31.810Z,99499.97
2024-01-16T20:18:59.709Z,99505.09
2024-01-16T20:21:28.012Z,99501.77
2024-01-16T20:23:56.224Z,99496.24
2024-01-16T20:26:24.144Z,99502.02
2024-01-16T20:28:52.362Z,99501.10
2024-01-16T20:31:20.682Z,99503.29
2024-01-16T20:33:50.633Z,99499.80
2024-01-16T20:36:20.569Z,99500.59
2024-01-16T20:38:50.132Z,99494.90
2024-01-16T20:41:18.200Z,99499.99
2024-01-16T20:43:46.223Z,99502.02
2024-01-16T20:46:15.730Z,99507.32
2024-01-16T20:48:43.745Z,99512.95
2024-01-16T20:51:15.367Z,99513.64
2024-01-16T20:53:43.649Z,99510.37
2024-01-16T20:56:11.698Z,99512.23
2024-01-16T20:58:40.080Z,99513.06
2024-01-16T21:01:08.812Z,99514.44
2024-01-16T21:03:37.228Z,99511.03
2024-01-16T21:06:08.460Z,99509.65
2024-01-16T21:08:38.425Z,99511.17
2024-01-16T21:11:09.031Z,99509.65
2024-01-16T21:13:36.877Z,99504.80
2024-01-16T21:16:08.733Z,99504.23
2024-01-16T21:18:39.387Z,99501.66
2024-01-16T21:21:07.609Z,99504.02
2024-01-16T21:23:36.464Z,99501.59
2024-01-16T21:26:11.087Z,99498.98
2024-01-16T21:28:42.532Z,99494.48
2024-01-16T21:31:10.384Z,99490.81
2024-01-16T21:33:38.304Z,99491.30
2024-01-16T21:36:06.761Z,99489.04
2024-01-16T21:38:35.980Z,99483.52
2024-01-16T21:41:08.238Z,99484.02
2024-01-16T21:43:36.387Z,99480.23
2024-01-16T21:46:04.268Z,99491.40
2024-01-16T21:48:33.444Z,99491.58
2024-01-16T21:51:01.991Z,99489.88
2024-01-16T21:53:30.441Z,99490.56
2024-01-16T21:55:58.585Z,99496.79
2024-01-16T21:58:27.679Z,99498.59
2024-01-16T22:00:56.754Z,99496.44
2024-01-16T22:03:24.555Z,99498.37
2024-01-16T22:05:52.815Z,99501.20
2024-01-16T22:08:20.650Z,99502.27
2024-01-16T22:10:49.047Z,99499.23
2024-01-16T22:13:17.221Z,99501.47
2024-01-16T22:15:44.948Z,99495.83
2024-01-16T22:18:13.457Z,99497.43
2024-01-16T22:20:41.907Z,99495.95
2024-01-16T22:23:10.382Z,99494.67
2024-01-16T22:25:38.282Z,99496.27
2024-01-16T22:28:06.484Z,99488.63
2024-01-16T22:30:35.399Z,99488.20
2024-01-16T22:33:05.865Z,99486.39
2024-01-16T22:35:34.234Z,99478.57
2024-01-16T22:38:01.954Z,99479.67
2024-01-16T22:40:31.624Z,99479.74
2024-01-16T22:43:00.178Z,99483.91
2024-01-16T22:45:27.882Z,99483.44
2024-01-16T22:47:58.307Z,99479.73
2024-01-16T22:50:26.747Z,99476.01
2024-01-16T22:52:54.562Z,99470.92
2024-01-16T22:55:22.518Z,99471.48
2024-01-16T22:57:50.657Z,99472.55
2024-01-16T23:00:21.787Z,99469.30
2024-01-16T23:02:50.248Z,99467.45
2024-01-16T23:05:18.602Z,99461.80
2024-01-16T23:07:47.004Z,99458.00
2024-01-16T23:10:15.998Z,99461.41
2024-01-16T23:12:46.934Z,99461.22
2024-01-16T23:15:16.717Z,99462.05
2024-01-16T23:17:45.229Z,99464.95
2024-01-16T23:20:17.590Z,99459.29
2024-01-16T23:22:45.685Z,99457.38
2024-01-16T23:25:14.672Z,99455.98
2024-01-16T23:27:44.118Z,99458.07
2024-01-16T23:30:12.430Z,99453.80
2024-01-16T23:32:40.735Z,99449.56
2024-01-16T23:35:08.951Z,99447.86
2024-01-16T23:37:37.619Z,99443.61
2024-01-16T23:40:06.285Z,99440.20
2024-01-16T23:42:34.394Z,99436.29
2024-01-16T23:45:06.462Z,99428.63
2024-01-16T23:47:39.035Z,99420.44
2024-01-16T23:50:07.855Z,99418.28
2024-01-16T23:52:35.727Z,99423.81
2024-01-16T23:55:04.168Z,99424.20
2024-01-16T23:57:32.012Z,99427.99
